sensor_id;sensor_type;location;lat;lon;timestamp;P1;durP1;ratioP1;P2;durP2;ratioP2
45694;SDS011;31408;45.468;9.124;2022-10-31T00:00:06;19.20;;;8.60;;
45694;SDS011;31408;45.468;9.124;2022-10-31T00:02:36;20.27;;;8.25;;
45694;SDS011;31408;45.468;9.124;2022-10-31T00:05:01;18.48;;;7.93;;
45694;SDS011;31408;45.468;9.124;2022-10-31T00:07:27;21.45;;;8.50;;
45694;SDS011;31408;45.468;9.124;2022-10-31T00:09:52;20.58;;;8.98;;
45694;SDS011;31408;45.468;9.124;2022-10-31T00:12:17;21.13;;;7.97;;
45694;SDS011;31408;45.468;9.124;2022-10-31T00:14:43;17.60;;;7.43;;
45694;SDS011;31408;45.468;9.124;2022-10-31T00:17:08;20.67;;;8.45;;
45694;SDS011;31408;45.468;9.124;2022-10-31T00:19:33;19.55;;;9.50;;
45694;SDS011;31408;45.468;9.124;2022-10-31T00:21:58;20.00;;;8.38;;
45694;SDS011;31408;45.468;9.124;2022-10-31T00:24:24;22.73;;;9.30;;
45694;SDS011;31408;45.468;9.124;2022-10-31T00:26:49;23.85;;;8.30;;
45694;SDS011;31408;45.468;9.124;2022-10-31T00:29:15;26.48;;;9.65;;
45694;SDS011;31408;45.468;9.124;2022-10-31T00:31:40;16.05;;;7.93;;
45694;SDS011;31408;45.468;9.124;2022-10-31T00:34:05;17.88;;;8.20;;
45694;SDS011;31408;45.468;9.124;2022-10-31T00:36:35;19.67;;;8.75;;
45694;SDS011;31408;45.468;9.124;2022-10-31T00:39:01;26.02;;;10.55;;
45694;SDS011;31408;45.468;9.124;2022-10-31T00:41:26;20.50;;;8.80;;
45694;SDS011;31408;45.468;9.124;2022-10-31T00:43:52;23.98;;;7.93;;
45694;SDS011;31408;45.468;9.124;2022-10-31T00:46:17;23.02;;;7.70;;
45694;SDS011;31408;45.468;9.124;2022-10-31T00:48:42;20.83;;;7.97;;
45694;SDS011;31408;45.468;9.124;2022-10-31T00:51:08;21.08;;;8.35;;
45694;SDS011;31408;45.468;9.124;2022-10-31T00:53:34;13.20;;;7.05;;
45694;SDS011;31408;45.468;9.124;2022-10-31T00:55:59;18.08;;;7.75;;
45694;SDS011;31408;45.468;9.124;2022-10-31T00:58:25;20.00;;;8.55;;
45694;SDS011;31408;45.468;9.124;2022-10-31T01:00:51;21.40;;;8.32;;
45694;SDS011;31408;45.468;9.124;2022-10-31T01:03:23;18.58;;;8.60;;
45694;SDS011;31408;45.468;9.124;2022-10-31T01:08:44;25.08;;;10.00;;
45694;SDS011;31408;45.468;9.124;2022-10-31T01:11:16;21.08;;;7.93;;
45694;SDS011;31408;45.468;9.124;2022-10-31T01:13:42;19.02;;;7.50;;
45694;SDS011;31408;45.468;9.124;2022-10-31T01:16:08;23.38;;;9.25;;
45694;SDS011;31408;45.468;9.124;2022-10-31T01:18:33;23.27;;;8.85;;
45694;SDS011;31408;45.468;9.124;2022-10-31T01:21:00;21.90;;;8.00;;
45694;SDS011;31408;45.468;9.124;2022-10-31T01:23:26;22.20;;;8.20;;
45694;SDS011;31408;45.468;9.124;2022-10-31T01:26:26;18.25;;;8.00;;
45694;SDS011;31408;45.468;9.124;2022-10-31T01:28:45;17.17;;;6.50;;
45694;SDS011;31408;45.468;9.124;2022-10-31T01:31:11;16.90;;;7.65;;
45694;SDS011;31408;45.468;9.124;2022-10-31T01:33:37;20.35;;;8.07;;
45694;SDS011;31408;45.468;9.124;2022-10-31T01:38:37;25.02;;;8.43;;
45694;SDS011;31408;45.468;9.124;2022-10-31T01:41:02;17.63;;;8.98;;
45694;SDS011;31408;45.468;9.124;2022-10-31T01:43:44;20.58;;;8.07;;
45694;SDS011;31408;45.468;9.124;2022-10-31T01:46:10;19.70;;;7.53;;
45694;SDS011;31408;45.468;9.124;2022-10-31T01:48:35;18.90;;;7.95;;
45694;SDS011;31408;45.468;9.124;2022-10-31T01:51:01;16.08;;;7.40;;
45694;SDS011;31408;45.468;9.124;2022-10-31T01:53:29;16.30;;;7.85;;
45694;SDS011;31408;45.468;9.124;2022-10-31T01:55:56;18.35;;;7.47;;
45694;SDS011;31408;45.468;9.124;2022-10-31T01:58:22;12.85;;;6.80;;
45694;SDS011;31408;45.468;9.124;2022-10-31T02:00:50;14.55;;;6.78;;
45694;SDS011;31408;45.468;9.124;2022-10-31T02:03:17;15.70;;;6.47;;
45694;SDS011;31408;45.468;9.124;2022-10-31T02:05:43;16.58;;;7.22;;
45694;SDS011;31408;45.468;9.124;2022-10-31T02:10:37;17.45;;;7.07;;
45694;SDS011;31408;45.468;9.124;2022-10-31T02:13:04;21.60;;;6.70;;
45694;SDS011;31408;45.468;9.124;2022-10-31T02:15:30;14.43;;;7.30;;
45694;SDS011;31408;45.468;9.124;2022-10-31T02:17:56;17.35;;;7.95;;
45694;SDS011;31408;45.468;9.124;2022-10-31T02:20:22;22.20;;;7.63;;
45694;SDS011;31408;45.468;9.124;2022-10-31T02:23:13;14.43;;;7.03;;
45694;SDS011;31408;45.468;9.124;2022-10-31T02:33:51;13.50;;;6.40;;
45694;SDS011;31408;45.468;9.124;2022-10-31T02:36:36;14.63;;;6.00;;
45694;SDS011;31408;45.468;9.124;2022-10-31T02:41:50;13.68;;;6.32;;
45694;SDS011;31408;45.468;9.124;2022-10-31T02:44:29;14.30;;;6.75;;
45694;SDS011;31408;45.468;9.124;2022-10-31T02:47:11;20.60;;;7.65;;
45694;SDS011;31408;45.468;9.124;2022-10-31T02:49:40;14.15;;;5.80;;
45694;SDS011;31408;45.468;9.124;2022-10-31T02:52:18;16.60;;;7.18;;
45694;SDS011;31408;45.468;9.124;2022-10-31T02:54:44;13.98;;;6.43;;
45694;SDS011;31408;45.468;9.124;2022-10-31T02:57:10;17.42;;;7.18;;
45694;SDS011;31408;45.468;9.124;2022-10-31T02:59:36;17.48;;;7.50;;
45694;SDS011;31408;45.468;9.124;2022-10-31T03:04:31;17.23;;;6.93;;
45694;SDS011;31408;45.468;9.124;2022-10-31T03:07:03;15.48;;;6.28;;
45694;SDS011;31408;45.468;9.124;2022-10-31T03:15:12;15.90;;;6.30;;
45694;SDS011;31408;45.468;9.124;2022-10-31T03:17:22;20.00;;;6.40;;
45694;SDS011;31408;45.468;9.124;2022-10-31T03:19:52;19.77;;;8.00;;
45694;SDS011;31408;45.468;9.124;2022-10-31T03:22:20;19.70;;;6.78;;
45694;SDS011;31408;45.468;9.124;2022-10-31T03:24:46;12.43;;;5.32;;
45694;SDS011;31408;45.468;9.124;2022-10-31T03:27:13;13.65;;;6.43;;
45694;SDS011;31408;45.468;9.124;2022-10-31T03:29:40;14.30;;;6.03;;
45694;SDS011;31408;45.468;9.124;2022-10-31T03:32:15;14.73;;;5.97;;
45694;SDS011;31408;45.468;9.124;2022-10-31T03:34:43;15.18;;;6.55;;
45694;SDS011;31408;45.468;9.124;2022-10-31T03:37:10;12.60;;;5.53;;
45694;SDS011;31408;45.468;9.124;2022-10-31T03:39:36;11.82;;;5.65;;
45694;SDS011;31408;45.468;9.124;2022-10-31T03:44:29;16.38;;;6.97;;
45694;SDS011;31408;45.468;9.124;2022-10-31T03:46:58;21.60;;;5.78;;
45694;SDS011;31408;45.468;9.124;2022-10-31T03:49:24;14.02;;;5.72;;
45694;SDS011;31408;45.468;9.124;2022-10-31T03:57:06;13.77;;;6.35;;
45694;SDS011;31408;45.468;9.124;2022-10-31T03:59:33;16.42;;;6.15;;
45694;SDS011;31408;45.468;9.124;2022-10-31T04:02:01;17.15;;;6.38;;
45694;SDS011;31408;45.468;9.124;2022-10-31T04:04:28;13.00;;;5.57;;
45694;SDS011;31408;45.468;9.124;2022-10-31T04:06:54;11.57;;;5.82;;
45694;SDS011;31408;45.468;9.124;2022-10-31T04:09:21;14.35;;;5.38;;
45694;SDS011;31408;45.468;9.124;2022-10-31T04:11:50;13.75;;;5.97;;
45694;SDS011;31408;45.468;9.124;2022-10-31T04:14:38;14.55;;;5.82;;
45694;SDS011;31408;45.468;9.124;2022-10-31T04:17:07;20.52;;;6.38;;
45694;SDS011;31408;45.468;9.124;2022-10-31T04:19:37;14.55;;;6.05;;
45694;SDS011;31408;45.468;9.124;2022-10-31T04:22:03;15.13;;;6.25;;
45694;SDS011;31408;45.468;9.124;2022-10-31T04:24:28;13.95;;;5.65;;
45694;SDS011;31408;45.468;9.124;2022-10-31T04:26:54;13.63;;;6.05;;
45694;SDS011;31408;45.468;9.124;2022-10-31T04:29:21;17.23;;;5.75;;
45694;SDS011;31408;45.468;9.124;2022-10-31T04:31:46;15.02;;;6.15;;
45694;SDS011;31408;45.468;9.124;2022-10-31T04:34:12;16.20;;;6.53;;
45694;SDS011;31408;45.468;9.124;2022-10-31T04:36:37;13.52;;;5.85;;
45694;SDS011;31408;45.468;9.124;2022-10-31T04:39:03;12.75;;;5.60;;
45694;SDS011;31408;45.468;9.124;2022-10-31T04:41:43;13.85;;;5.53;;
45694;SDS011;31408;45.468;9.124;2022-10-31T04:44:15;19.85;;;6.03;;
45694;SDS011;31408;45.468;9.124;2022-10-31T04:46:45;12.25;;;5.57;;
45694;SDS011;31408;45.468;9.124;2022-10-31T04:49:10;13.93;;;6.13;;
45694;SDS011;31408;45.468;9.124;2022-10-31T04:51:36;11.85;;;5.68;;
45694;SDS011;31408;45.468;9.124;2022-10-31T04:54:01;14.13;;;5.78;;
45694;SDS011;31408;45.468;9.124;2022-10-31T04:56:27;11.70;;;5.10;;
45694;SDS011;31408;45.468;9.124;2022-10-31T04:58:58;8.20;;;4.43;;
45694;SDS011;31408;45.468;9.124;2022-10-31T05:01:24;15.07;;;6.38;;
45694;SDS011;31408;45.468;9.124;2022-10-31T05:03:50;16.80;;;6.82;;
45694;SDS011;31408;45.468;9.124;2022-10-31T05:06:15;15.95;;;6.45;;
45694;SDS011;31408;45.468;9.124;2022-10-31T05:08:41;15.93;;;5.82;;
45694;SDS011;31408;45.468;9.124;2022-10-31T05:11:08;15.45;;;7.47;;
45694;SDS011;31408;45.468;9.124;2022-10-31T05:13:33;21.75;;;8.55;;
45694;SDS011;31408;45.468;9.124;2022-10-31T05:16:30;17.33;;;6.80;;
45694;SDS011;31408;45.468;9.124;2022-10-31T05:19:14;18.83;;;8.00;;
45694;SDS011;31408;45.468;9.124;2022-10-31T05:21:59;18.15;;;9.00;;
45694;SDS011;31408;45.468;9.124;2022-10-31T05:24:25;16.88;;;7.70;;
45694;SDS011;31408;45.468;9.124;2022-10-31T05:26:51;16.25;;;8.35;;
45694;SDS011;31408;45.468;9.124;2022-10-31T05:29:16;18.77;;;7.95;;
45694;SDS011;31408;45.468;9.124;2022-10-31T05:31:42;24.17;;;9.63;;
45694;SDS011;31408;45.468;9.124;2022-10-31T05:34:18;19.63;;;10.05;;
45694;SDS011;31408;45.468;9.124;2022-10-31T05:36:43;16.65;;;6.85;;
45694;SDS011;31408;45.468;9.124;2022-10-31T05:39:13;19.00;;;7.47;;
45694;SDS011;31408;45.468;9.124;2022-10-31T05:41:41;13.57;;;7.30;;
45694;SDS011;31408;45.468;9.124;2022-10-31T05:44:17;15.13;;;6.13;;
45694;SDS011;31408;45.468;9.124;2022-10-31T05:46:53;21.25;;;7.03;;
45694;SDS011;31408;45.468;9.124;2022-10-31T05:49:45;17.30;;;7.43;;
45694;SDS011;31408;45.468;9.124;2022-10-31T05:52:31;13.02;;;6.15;;
45694;SDS011;31408;45.468;9.124;2022-10-31T05:55:04;17.10;;;6.40;;
45694;SDS011;31408;45.468;9.124;2022-10-31T05:57:29;12.77;;;6.63;;
45694;SDS011;31408;45.468;9.124;2022-10-31T05:59:57;18.10;;;6.82;;
45694;SDS011;31408;45.468;9.124;2022-10-31T06:02:22;14.98;;;6.88;;
45694;SDS011;31408;45.468;9.124;2022-10-31T06:05:20;15.35;;;6.57;;
45694;SDS011;31408;45.468;9.124;2022-10-31T06:07:46;19.77;;;7.22;;
45694;SDS011;31408;45.468;9.124;2022-10-31T06:10:11;15.32;;;7.07;;
45694;SDS011;31408;45.468;9.124;2022-10-31T06:12:37;15.60;;;7.03;;
45694;SDS011;31408;45.468;9.124;2022-10-31T06:15:33;14.65;;;6.25;;
45694;SDS011;31408;45.468;9.124;2022-10-31T06:18:00;23.77;;;7.65;;
45694;SDS011;31408;45.468;9.124;2022-10-31T06:20:26;15.98;;;7.18;;
45694;SDS011;31408;45.468;9.124;2022-10-31T06:23:01;10.88;;;5.55;;
45694;SDS011;31408;45.468;9.124;2022-10-31T06:25:27;14.85;;;6.30;;
45694;SDS011;31408;45.468;9.124;2022-10-31T06:27:53;16.00;;;6.47;;
45694;SDS011;31408;45.468;9.124;2022-10-31T06:30:21;14.40;;;5.75;;
45694;SDS011;31408;45.468;9.124;2022-10-31T06:32:47;12.95;;;7.15;;
45694;SDS011;31408;45.468;9.124;2022-10-31T06:35:12;13.13;;;6.50;;
45694;SDS011;31408;45.468;9.124;2022-10-31T06:37:39;12.65;;;6.80;;
45694;SDS011;31408;45.468;9.124;2022-10-31T06:40:28;11.65;;;5.85;;
45694;SDS011;31408;45.468;9.124;2022-10-31T06:43:16;12.43;;;6.50;;
45694;SDS011;31408;45.468;9.124;2022-10-31T06:45:42;16.58;;;6.57;;
45694;SDS011;31408;45.468;9.124;2022-10-31T06:48:20;14.23;;;7.18;;
45694;SDS011;31408;45.468;9.124;2022-10-31T06:51:10;20.25;;;7.35;;
45694;SDS011;31408;45.468;9.124;2022-10-31T06:53:36;27.58;;;7.63;;
45694;SDS011;31408;45.468;9.124;2022-10-31T06:56:03;18.63;;;6.88;;
45694;SDS011;31408;45.468;9.124;2022-10-31T06:58:33;22.08;;;8.65;;
45694;SDS011;31408;45.468;9.124;2022-10-31T07:01:01;15.57;;;7.55;;
45694;SDS011;31408;45.468;9.124;2022-10-31T07:03:26;13.25;;;7.07;;
45694;SDS011;31408;45.468;9.124;2022-10-31T07:05:52;16.25;;;7.72;;
45694;SDS011;31408;45.468;9.124;2022-10-31T07:08:17;18.60;;;6.90;;
45694;SDS011;31408;45.468;9.124;2022-10-31T07:10:43;19.70;;;7.88;;
45694;SDS011;31408;45.468;9.124;2022-10-31T07:13:12;13.82;;;6.70;;
45694;SDS011;31408;45.468;9.124;2022-10-31T07:15:38;27.75;;;9.63;;
45694;SDS011;31408;45.468;9.124;2022-10-31T07:18:04;15.95;;;6.20;;
45694;SDS011;31408;45.468;9.124;2022-10-31T07:20:32;17.85;;;7.15;;
45694;SDS011;31408;45.468;9.124;2022-10-31T07:22:58;17.65;;;7.25;;
45694;SDS011;31408;45.468;9.124;2022-10-31T07:25:24;17.50;;;7.50;;
45694;SDS011;31408;45.468;9.124;2022-10-31T07:28:09;18.88;;;7.63;;
45694;SDS011;31408;45.468;9.124;2022-10-31T07:30:34;17.95;;;5.82;;
45694;SDS011;31408;45.468;9.124;2022-10-31T07:33:00;17.52;;;7.05;;
45694;SDS011;31408;45.468;9.124;2022-10-31T07:35:45;15.30;;;6.40;;
45694;SDS011;31408;45.468;9.124;2022-10-31T07:38:13;15.82;;;7.20;;
45694;SDS011;31408;45.468;9.124;2022-10-31T07:40:39;14.57;;;6.95;;
45694;SDS011;31408;45.468;9.124;2022-10-31T07:43:04;21.13;;;7.88;;
45694;SDS011;31408;45.468;9.124;2022-10-31T07:46:04;21.90;;;7.20;;
45694;SDS011;31408;45.468;9.124;2022-10-31T07:48:38;19.55;;;6.75;;
45694;SDS011;31408;45.468;9.124;2022-10-31T07:51:22;15.38;;;6.68;;
45694;SDS011;31408;45.468;9.124;2022-10-31T07:54:09;21.13;;;7.05;;
45694;SDS011;31408;45.468;9.124;2022-10-31T07:56:36;15.95;;;7.22;;
45694;SDS011;31408;45.468;9.124;2022-10-31T07:59:01;13.68;;;6.65;;
45694;SDS011;31408;45.468;9.124;2022-10-31T08:01:27;19.30;;;6.15;;
45694;SDS011;31408;45.468;9.124;2022-10-31T08:04:22;14.55;;;6.75;;
45694;SDS011;31408;45.468;9.124;2022-10-31T08:07:06;20.48;;;7.50;;
45694;SDS011;31408;45.468;9.124;2022-10-31T08:09:34;15.98;;;7.45;;
45694;SDS011;31408;45.468;9.124;2022-10-31T08:12:04;12.65;;;6.13;;
45694;SDS011;31408;45.468;9.124;2022-10-31T08:14:32;16.65;;;6.70;;
45694;SDS011;31408;45.468;9.124;2022-10-31T08:16:57;18.45;;;6.65;;
45694;SDS011;31408;45.468;9.124;2022-10-31T08:19:28;16.08;;;6.35;;
45694;SDS011;31408;45.468;9.124;2022-10-31T08:21:54;16.48;;;6.65;;
45694;SDS011;31408;45.468;9.124;2022-10-31T08:24:21;14.80;;;6.45;;
45694;SDS011;31408;45.468;9.124;2022-10-31T08:26:47;18.30;;;7.30;;
45694;SDS011;31408;45.468;9.124;2022-10-31T08:29:12;17.45;;;7.07;;
45694;SDS011;31408;45.468;9.124;2022-10-31T08:31:39;17.60;;;6.93;;
45694;SDS011;31408;45.468;9.124;2022-10-31T08:34:23;18.40;;;6.65;;
45694;SDS011;31408;45.468;9.124;2022-10-31T08:37:07;20.80;;;7.70;;
45694;SDS011;31408;45.468;9.124;2022-10-31T08:39:38;25.55;;;9.68;;
45694;SDS011;31408;45.468;9.124;2022-10-31T08:42:04;17.13;;;7.75;;
45694;SDS011;31408;45.468;9.124;2022-10-31T08:44:29;14.70;;;6.57;;
45694;SDS011;31408;45.468;9.124;2022-10-31T08:46:55;16.58;;;8.27;;
45694;SDS011;31408;45.468;9.124;2022-10-31T08:49:21;21.63;;;8.73;;
45694;SDS011;31408;45.468;9.124;2022-10-31T08:51:47;19.65;;;8.35;;
45694;SDS011;31408;45.468;9.124;2022-10-31T08:54:13;20.52;;;8.10;;
45694;SDS011;31408;45.468;9.124;2022-10-31T08:56:54;19.52;;;8.85;;
45694;SDS011;31408;45.468;9.124;2022-10-31T08:59:34;17.38;;;8.57;;
45694;SDS011;31408;45.468;9.124;2022-10-31T09:02:16;21.83;;;8.57;;
45694;SDS011;31408;45.468;9.124;2022-10-31T09:04:41;19.10;;;7.78;;
45694;SDS011;31408;45.468;9.124;2022-10-31T09:07:07;18.50;;;8.38;;
45694;SDS011;31408;45.468;9.124;2022-10-31T09:09:32;24.80;;;9.18;;
45694;SDS011;31408;45.468;9.124;2022-10-31T09:11:58;19.67;;;8.90;;
45694;SDS011;31408;45.468;9.124;2022-10-31T09:14:56;20.73;;;8.15;;
45694;SDS011;31408;45.468;9.124;2022-10-31T09:17:47;18.35;;;8.27;;
45694;SDS011;31408;45.468;9.124;2022-10-31T09:20:21;20.00;;;7.93;;
45694;SDS011;31408;45.468;9.124;2022-10-31T09:22:47;20.10;;;8.55;;
45694;SDS011;31408;45.468;9.124;2022-10-31T09:25:13;27.55;;;8.80;;
45694;SDS011;31408;45.468;9.124;2022-10-31T09:27:42;19.70;;;8.77;;
45694;SDS011;31408;45.468;9.124;2022-10-31T09:30:08;18.65;;;8.52;;
45694;SDS011;31408;45.468;9.124;2022-10-31T09:32:34;21.42;;;8.70;;
45694;SDS011;31408;45.468;9.124;2022-10-31T09:34:59;22.80;;;9.00;;
45694;SDS011;31408;45.468;9.124;2022-10-31T09:37:25;23.88;;;9.45;;
45694;SDS011;31408;45.468;9.124;2022-10-31T09:39:50;17.98;;;9.20;;
45694;SDS011;31408;45.468;9.124;2022-10-31T09:50:28;21.00;;;9.57;;
45694;SDS011;31408;45.468;9.124;2022-10-31T09:53:07;23.38;;;9.95;;
45694;SDS011;31408;45.468;9.124;2022-10-31T09:55:36;22.65;;;10.85;;
45694;SDS011;31408;45.468;9.124;2022-10-31T09:58:03;25.35;;;10.05;;
45694;SDS011;31408;45.468;9.124;2022-10-31T10:00:29;27.88;;;11.25;;
45694;SDS011;31408;45.468;9.124;2022-10-31T10:05:34;20.70;;;10.27;;
45694;SDS011;31408;45.468;9.124;2022-10-31T10:08:19;28.40;;;11.30;;
45694;SDS011;31408;45.468;9.124;2022-10-31T10:14:27;22.23;;;11.40;;
45694;SDS011;31408;45.468;9.124;2022-10-31T10:21:54;24.15;;;9.85;;
45694;SDS011;31408;45.468;9.124;2022-10-31T10:27:16;19.95;;;8.82;;
45694;SDS011;31408;45.468;9.124;2022-10-31T10:32:12;28.08;;;10.25;;
45694;SDS011;31408;45.468;9.124;2022-10-31T10:34:47;22.77;;;9.45;;
45694;SDS011;31408;45.468;9.124;2022-10-31T10:37:34;24.77;;;9.48;;
45694;SDS011;31408;45.468;9.124;2022-10-31T10:40:15;26.65;;;10.02;;
45694;SDS011;31408;45.468;9.124;2022-10-31T10:42:41;25.25;;;9.45;;
45694;SDS011;31408;45.468;9.124;2022-10-31T11:02:45;20.45;;;8.27;;
45694;SDS011;31408;45.468;9.124;2022-10-31T11:05:18;25.38;;;8.68;;
45694;SDS011;31408;45.468;9.124;2022-10-31T11:07:47;22.98;;;8.68;;
45694;SDS011;31408;45.468;9.124;2022-10-31T11:10:13;18.17;;;7.20;;
45694;SDS011;31408;45.468;9.124;2022-10-31T11:12:40;28.30;;;7.43;;
45694;SDS011;31408;45.468;9.124;2022-10-31T11:15:08;21.42;;;7.97;;
45694;SDS011;31408;45.468;9.124;2022-10-31T11:17:46;18.88;;;6.90;;
45694;SDS011;31408;45.468;9.124;2022-10-31T11:22:42;15.80;;;6.90;;
45694;SDS011;31408;45.468;9.124;2022-10-31T11:25:26;13.65;;;6.30;;
45694;SDS011;31408;45.468;9.124;2022-10-31T11:28:02;17.52;;;7.07;;
45694;SDS011;31408;45.468;9.124;2022-10-31T11:30:29;13.45;;;6.22;;
45694;SDS011;31408;45.468;9.124;2022-10-31T11:32:55;12.57;;;6.50;;
45694;SDS011;31408;45.468;9.124;2022-10-31T11:35:26;21.17;;;7.00;;
45694;SDS011;31408;45.468;9.124;2022-10-31T11:37:54;16.73;;;6.10;;
45694;SDS011;31408;45.468;9.124;2022-10-31T11:40:26;20.60;;;5.32;;
45694;SDS011;31408;45.468;9.124;2022-10-31T11:42:53;15.70;;;6.18;;
45694;SDS011;31408;45.468;9.124;2022-10-31T11:47:50;21.92;;;8.88;;
45694;SDS011;31408;45.468;9.124;2022-10-31T11:50:20;20.10;;;7.80;;
45694;SDS011;31408;45.468;9.124;2022-10-31T11:52:46;16.70;;;7.05;;
45694;SDS011;31408;45.468;9.124;2022-10-31T11:57:43;21.13;;;8.05;;
45694;SDS011;31408;45.468;9.124;2022-10-31T12:02:44;18.30;;;8.60;;
45694;SDS011;31408;45.468;9.124;2022-10-31T12:08:08;19.73;;;7.13;;
45694;SDS011;31408;45.468;9.124;2022-10-31T12:11:09;12.95;;;6.28;;
45694;SDS011;31408;45.468;9.124;2022-10-31T12:13:33;20.75;;;7.60;;
45694;SDS011;31408;45.468;9.124;2022-10-31T12:16:10;23.70;;;8.40;;
45694;SDS011;31408;45.468;9.124;2022-10-31T12:21:29;15.95;;;6.63;;
45694;SDS011;31408;45.468;9.124;2022-10-31T12:24:04;13.63;;;6.57;;
45694;SDS011;31408;45.468;9.124;2022-10-31T12:29:30;14.95;;;6.05;;
45694;SDS011;31408;45.468;9.124;2022-10-31T12:37:35;22.02;;;7.82;;
45694;SDS011;31408;45.468;9.124;2022-10-31T12:43:05;13.38;;;5.45;;
45694;SDS011;31408;45.468;9.124;2022-10-31T12:45:56;21.67;;;8.90;;
45694;SDS011;31408;45.468;9.124;2022-10-31T13:03:31;13.43;;;5.70;;
45694;SDS011;31408;45.468;9.124;2022-10-31T13:05:59;22.27;;;5.72;;
45694;SDS011;31408;45.468;9.124;2022-10-31T13:08:43;18.02;;;6.20;;
45694;SDS011;31408;45.468;9.124;2022-10-31T13:11:14;20.33;;;6.13;;
45694;SDS011;31408;45.468;9.124;2022-10-31T13:14:01;15.13;;;6.07;;
45694;SDS011;31408;45.468;9.124;2022-10-31T13:16:33;12.43;;;5.47;;
45694;SDS011;31408;45.468;9.124;2022-10-31T13:21:26;10.75;;;4.55;;
45694;SDS011;31408;45.468;9.124;2022-10-31T13:23:52;12.57;;;4.30;;
45694;SDS011;31408;45.468;9.124;2022-10-31T13:26:42;14.52;;;4.38;;
45694;SDS011;31408;45.468;9.124;2022-10-31T13:29:09;16.65;;;4.57;;
45694;SDS011;31408;45.468;9.124;2022-10-31T13:31:39;26.45;;;6.28;;
45694;SDS011;31408;45.468;9.124;2022-10-31T13:34:04;11.68;;;4.40;;
45694;SDS011;31408;45.468;9.124;2022-10-31T13:36:42;12.00;;;5.38;;
45694;SDS011;31408;45.468;9.124;2022-10-31T13:39:15;13.35;;;4.70;;
45694;SDS011;31408;45.468;9.124;2022-10-31T13:46:40;17.15;;;5.07;;
45694;SDS011;31408;45.468;9.124;2022-10-31T13:51:50;8.65;;;3.83;;
45694;SDS011;31408;45.468;9.124;2022-10-31T13:54:34;14.73;;;4.40;;
45694;SDS011;31408;45.468;9.124;2022-10-31T13:56:59;17.70;;;4.45;;
45694;SDS011;31408;45.468;9.124;2022-10-31T13:59:28;17.55;;;6.63;;
45694;SDS011;31408;45.468;9.124;2022-10-31T14:01:56;12.13;;;3.95;;
45694;SDS011;31408;45.468;9.124;2022-10-31T14:06:55;8.90;;;4.03;;
45694;SDS011;31408;45.468;9.124;2022-10-31T14:09:27;13.18;;;3.90;;
45694;SDS011;31408;45.468;9.124;2022-10-31T14:11:52;13.05;;;4.13;;
45694;SDS011;31408;45.468;9.124;2022-10-31T14:14:18;12.68;;;3.72;;
45694;SDS011;31408;45.468;9.124;2022-10-31T14:16:44;10.57;;;3.60;;
45694;SDS011;31408;45.468;9.124;2022-10-31T14:19:14;10.82;;;3.60;;
45694;SDS011;31408;45.468;9.124;2022-10-31T14:21:42;14.35;;;4.07;;
45694;SDS011;31408;45.468;9.124;2022-10-31T14:24:30;17.85;;;3.65;;
45694;SDS011;31408;45.468;9.124;2022-10-31T14:26:57;13.13;;;3.85;;
45694;SDS011;31408;45.468;9.124;2022-10-31T14:29:29;8.40;;;4.13;;
45694;SDS011;31408;45.468;9.124;2022-10-31T14:34:41;13.10;;;4.55;;
45694;SDS011;31408;45.468;9.124;2022-10-31T14:37:15;16.23;;;5.03;;
45694;SDS011;31408;45.468;9.124;2022-10-31T14:42:32;11.73;;;4.60;;
45694;SDS011;31408;45.468;9.124;2022-10-31T14:47:48;12.82;;;5.32;;
45694;SDS011;31408;45.468;9.124;2022-10-31T14:50:21;16.30;;;5.80;;
45694;SDS011;31408;45.468;9.124;2022-10-31T14:52:48;12.95;;;4.82;;
45694;SDS011;31408;45.468;9.124;2022-10-31T14:55:14;19.65;;;5.93;;
45694;SDS011;31408;45.468;9.124;2022-10-31T14:57:43;21.65;;;6.03;;
45694;SDS011;31408;45.468;9.124;2022-10-31T15:00:14;19.05;;;5.07;;
45694;SDS011;31408;45.468;9.124;2022-10-31T15:02:49;15.85;;;6.57;;
45694;SDS011;31408;45.468;9.124;2022-10-31T15:05:15;13.55;;;4.97;;
45694;SDS011;31408;45.468;9.124;2022-10-31T15:10:49;13.25;;;4.53;;
45694;SDS011;31408;45.468;9.124;2022-10-31T15:13:08;11.75;;;5.32;;
45694;SDS011;31408;45.468;9.124;2022-10-31T15:15:34;17.35;;;6.05;;
45694;SDS011;31408;45.468;9.124;2022-10-31T15:18:00;16.60;;;6.35;;
45694;SDS011;31408;45.468;9.124;2022-10-31T15:20:27;16.08;;;5.60;;
45694;SDS011;31408;45.468;9.124;2022-10-31T15:22:56;13.38;;;4.97;;
45694;SDS011;31408;45.468;9.124;2022-10-31T15:25:23;15.35;;;6.05;;
45694;SDS011;31408;45.468;9.124;2022-10-31T15:27:49;11.85;;;4.95;;
45694;SDS011;31408;45.468;9.124;2022-10-31T15:32:44;17.52;;;5.22;;
45694;SDS011;31408;45.468;9.124;2022-10-31T15:35:09;25.63;;;5.57;;
45694;SDS011;31408;45.468;9.124;2022-10-31T15:37:35;24.17;;;6.60;;
45694;SDS011;31408;45.468;9.124;2022-10-31T15:40:06;14.32;;;6.95;;
45694;SDS011;31408;45.468;9.124;2022-10-31T15:42:41;18.40;;;5.30;;
45694;SDS011;31408;45.468;9.124;2022-10-31T15:47:36;33.63;;;6.68;;
45694;SDS011;31408;45.468;9.124;2022-10-31T15:50:02;23.52;;;5.38;;
45694;SDS011;31408;45.468;9.124;2022-10-31T15:52:29;21.38;;;4.88;;
45694;SDS011;31408;45.468;9.124;2022-10-31T15:55:44;16.73;;;5.03;;
45694;SDS011;31408;45.468;9.124;2022-10-31T15:57:46;19.17;;;6.10;;
45694;SDS011;31408;45.468;9.124;2022-10-31T16:00:25;17.73;;;5.68;;
45694;SDS011;31408;45.468;9.124;2022-10-31T16:03:02;14.23;;;4.93;;
45694;SDS011;31408;45.468;9.124;2022-10-31T16:05:32;11.57;;;4.82;;
45694;SDS011;31408;45.468;9.124;2022-10-31T16:07:59;15.90;;;4.88;;
45694;SDS011;31408;45.468;9.124;2022-10-31T16:10:25;18.05;;;5.63;;
45694;SDS011;31408;45.468;9.124;2022-10-31T16:12:51;52.88;;;30.08;;
45694;SDS011;31408;45.468;9.124;2022-10-31T16:15:17;29.45;;;9.20;;
45694;SDS011;31408;45.468;9.124;2022-10-31T16:17:45;33.53;;;13.18;;
45694;SDS011;31408;45.468;9.124;2022-10-31T16:22:48;39.92;;;13.48;;
45694;SDS011;31408;45.468;9.124;2022-10-31T16:25:20;33.42;;;7.00;;
45694;SDS011;31408;45.468;9.124;2022-10-31T16:27:49;22.42;;;5.85;;
45694;SDS011;31408;45.468;9.124;2022-10-31T16:32:52;19.20;;;5.45;;
45694;SDS011;31408;45.468;9.124;2022-10-31T16:37:50;28.15;;;6.38;;
45694;SDS011;31408;45.468;9.124;2022-10-31T16:40:15;22.02;;;7.40;;
45694;SDS011;31408;45.468;9.124;2022-10-31T16:42:41;26.38;;;4.80;;
45694;SDS011;31408;45.468;9.124;2022-10-31T16:45:06;19.23;;;5.57;;
45694;SDS011;31408;45.468;9.124;2022-10-31T16:47:33;28.75;;;7.00;;
45694;SDS011;31408;45.468;9.124;2022-10-31T16:49:58;51.53;;;10.23;;
45694;SDS011;31408;45.468;9.124;2022-10-31T16:52:25;39.95;;;9.75;;
45694;SDS011;31408;45.468;9.124;2022-10-31T16:54:50;57.38;;;23.73;;
45694;SDS011;31408;45.468;9.124;2022-10-31T16:57:17;47.08;;;14.07;;
45694;SDS011;31408;45.468;9.124;2022-10-31T16:59:43;39.28;;;8.48;;
45694;SDS011;31408;45.468;9.124;2022-10-31T17:02:13;24.98;;;5.88;;
45694;SDS011;31408;45.468;9.124;2022-10-31T17:04:39;34.63;;;7.72;;
45694;SDS011;31408;45.468;9.124;2022-10-31T17:07:04;21.27;;;5.70;;
45694;SDS011;31408;45.468;9.124;2022-10-31T17:09:29;24.08;;;6.40;;
45694;SDS011;31408;45.468;9.124;2022-10-31T17:11:55;20.63;;;5.57;;
45694;SDS011;31408;45.468;9.124;2022-10-31T17:14:20;24.38;;;6.13;;
45694;SDS011;31408;45.468;9.124;2022-10-31T17:16:46;15.77;;;5.90;;
45694;SDS011;31408;45.468;9.124;2022-10-31T17:19:11;17.35;;;5.85;;
45694;SDS011;31408;45.468;9.124;2022-10-31T17:21:37;24.45;;;5.80;;
45694;SDS011;31408;45.468;9.124;2022-10-31T17:24:02;23.05;;;6.13;;